createdAt,value
2019-04-10T00:00:48.018Z,99511.55
2019-04-10T00:01:27.796Z,99520.95
2019-04-10T00:02:03.628Z,99522.63
2019-04-10T00:02:39.779Z,99521.22
2019-04-10T00:03:25.631Z,99514.32
2019-04-10T00:03:53.050Z,99515.16
2019-04-10T00:04:29.483Z,99517.53
2019-04-10T00:05:06.055Z,99512.25
2019-04-10T00:05:42.533Z,99521.41
2019-04-10T00:06:18.614Z,99515.88
2019-04-10T00:07:01.993Z,99525.22
2019-04-10T00:07:31.343Z,99519.36
2019-04-10T00:08:06.851Z,99519.75
2019-04-10T00:08:42.305Z,99518.31
2019-04-10T00:09:18.943Z,99521.39
2019-04-10T00:09:55.164Z,99519.52
2019-04-10T00:10:30.635Z,99514.35
2019-04-10T00:11:06.073Z,99515.64
2019-04-10T00:11:41.499Z,99521.06
2019-04-10T00:12:17.726Z,99513.47
2019-04-10T00:12:54.128Z,99519.41
2019-04-10T00:13:29.695Z,99520.31
2019-04-10T00:14:05.408Z,99519.86
2019-04-10T00:14:40.868Z,99516.03
2019-04-10T00:15:18.226Z,99517.78
2019-04-10T00:15:53.594Z,99519.42
2019-04-10T00:16:29.927Z,99524.75
2019-04-10T00:17:06.842Z,99512.16
2019-04-10T00:17:42.925Z,99514.48
2019-04-10T00:18:20.002Z,99515.21
2019-04-10T00:18:56.142Z,99512.06
2019-04-10T00:19:31.629Z,99514.38
2019-04-10T00:20:07.864Z,99512.84
2019-04-10T00:20:43.488Z,99518.41
2019-04-10T00:21:18.940Z,99519.02
2019-04-10T00:21:54.392Z,99509.44
2019-04-10T00:22:30.493Z,99511.95
2019-04-10T00:23:06.799Z,99513.92
2019-04-10T00:23:42.380Z,99511.34
2019-04-10T00:24:17.874Z,99513.53
2019-04-10T00:24:53.284Z,99511.62
2019-04-10T00:25:29.186Z,99519.30
2019-04-10T00:26:05.560Z,99514.59
2019-04-10T00:26:41.688Z,99513.48
2019-04-10T00:27:18.600Z,99511.86
2019-04-10T00:27:54.847Z,99514.45
2019-04-10T00:28:30.299Z,99519.16
2019-04-10T00:29:05.814Z,99516.72
2019-04-10T00:29:41.307Z,99516.13
2019-04-10T00:30:16.759Z,99517.87
2019-04-10T00:30:52.202Z,99516.52
2019-04-10T00:31:27.713Z,99513.75
2019-04-10T00:32:05.721Z,99517.92
2019-04-10T00:32:40.539Z,99519.30
2019-04-10T00:33:16.601Z,99522.84
2019-04-10T00:33:52.071Z,99520.11
2019-04-10T00:34:27.541Z,99526.56
2019-04-10T00:35:02.904Z,99521.50
2019-04-10T00:35:39.402Z,99522.91
2019-04-10T00:36:16.009Z,99523.69
2019-04-10T00:36:51.628Z,99522.97
2019-04-10T00:37:29.975Z,99526.50
2019-04-10T00:38:05.131Z,99519.86
2019-04-10T00:38:40.665Z,99524.70
2019-04-10T00:39:16.572Z,99521.34
2019-04-10T00:39:53.025Z,99520.70
2019-04-10T00:40:28.486Z,99524.19
2019-04-10T00:41:04.025Z,99524.38
2019-04-10T00:41:40.660Z,99523.73
2019-04-10T00:42:16.867Z,99517.86
2019-04-10T00:42:52.365Z,99520.37
2019-04-10T00:43:28.281Z,99515.15
2019-04-10T00:44:04.002Z,99528.91
2019-04-10T00:44:39.644Z,99519.92
2019-04-10T00:45:15.503Z,99519.98
2019-04-10T00:45:51.435Z,99522.12
2019-04-10T00:46:26.969Z,99520.50
2019-04-10T00:47:02.496Z,99520.44
2019-04-10T00:47:39.109Z,99521.41
2019-04-10T00:48:15.484Z,99519.91
2019-04-10T00:48:51.079Z,99521.34
2019-04-10T00:49:26.483Z,99521.34
2019-04-10T00:50:02.397Z,99517.08
2019-04-10T00:50:38.921Z,99517.08
2019-04-10T00:51:15.189Z,99523.23
2019-04-10T00:51:50.668Z,99515.43
2019-04-10T00:52:26.464Z,99515.88
2019-04-10T00:53:02.911Z,99516.97
2019-04-10T00:53:38.766Z,99516.58
2019-04-10T00:54:14.693Z,99515.89
2019-04-10T00:54:51.041Z,99522.67
2019-04-10T00:55:26.505Z,99520.09
2019-04-10T00:56:01.989Z,99520.67
2019-04-10T00:56:37.371Z,99520.67
2019-04-10T00:57:13.503Z,99521.68
2019-04-10T00:57:49.814Z,99521.67
2019-04-10T00:58:25.922Z,99517.53
2019-04-10T00:59:01.772Z,99518.91
2019-04-10T00:59:37.220Z,99515.48
2019-04-10T01:00:12.874Z,99522.01
2019-04-10T01:00:50.118Z,99510.22
2019-04-10T01:01:25.666Z,99510.22
2019-04-10T01:02:02.546Z,99513.09
2019-04-10T01:02:38.332Z,99510.38
2019-04-10T01:03:33.743Z,99503.76
2019-04-10T01:04:10.572Z,99511.34
2019-04-10T01:04:46.736Z,99506.17
2019-04-10T01:05:22.877Z,99509.27
2019-04-10T01:05:58.498Z,99508.63
2019-04-10T01:06:33.908Z,99506.73
2019-04-10T01:07:09.332Z,99507.24
2019-04-10T01:07:46.074Z,99500.74
2019-04-10T01:08:21.912Z,99510.27
2019-04-10T01:08:57.482Z,99504.45
2019-04-10T01:09:33.269Z,99511.07
2019-04-10T01:10:08.809Z,99505.39
2019-04-10T01:10:44.324Z,99505.39
2019-04-10T01:11:21.064Z,99504.82
2019-04-10T01:11:57.223Z,99502.36
2019-04-10T01:12:32.642Z,99507.14
2019-04-10T01:13:08.387Z,99508.04
2019-04-10T01:13:45.259Z,99499.22
2019-04-10T01:14:21.309Z,99497.35
2019-04-10T01:14:56.778Z,99498.64
2019-04-10T01:15:32.305Z,99504.04
2019-04-10T01:16:07.743Z,99496.06
2019-04-10T01:16:43.985Z,99498.64
2019-04-10T01:17:19.475Z,99497.13
2019-04-10T01:17:54.957Z,99501.58
2019-04-10T01:18:31.049Z,99498.31
2019-04-10T01:19:06.564Z,99493.73
2019-04-10T01:19:41.990Z,99493.73
2019-04-10T01:20:17.656Z,99500.24
2019-04-10T01:20:53.592Z,99498.89
2019-04-10T01:21:29.077Z,99496.59
2019-04-10T01:22:04.621Z,99495.86
2019-04-10T01:22:40.064Z,99494.72
2019-04-10T01:23:16.083Z,99494.78
2019-04-10T01:23:51.581Z,99494.97
2019-04-10T01:24:27.918Z,99492.84
2019-04-10T01:25:03.446Z,99492.84
2019-04-10T01:25:38.853Z,99497.04
2019-04-10T01:26:14.904Z,99492.33
2019-04-10T01:26:51.698Z,99495.25
2019-04-10T01:27:27.795Z,99494.11
2019-04-10T01:28:03.279Z,99492.16
2019-04-10T01:28:39.062Z,99496.81
2019-04-10T01:29:15.505Z,99495.07
2019-04-10T01:29:51.531Z,99489.41
2019-04-10T01:30:27.069Z,99497.03
2019-04-10T01:31:02.595Z,99496.88
2019-04-10T01:31:39.444Z,99496.88
2019-04-10T01:32:15.429Z,99487.99
2019-04-10T01:32:50.997Z,99494.23
2019-04-10T01:33:26.407Z,99492.88
2019-04-10T01:34:01.820Z,99499.06
2019-04-10T01:34:37.943Z,99499.97
2019-04-10T01:35:14.130Z,99495.86
2019-04-10T01:35:49.588Z,99500.02
2019-04-10T01:36:24.989Z,99494.97
2019-04-10T01:37:00.750Z,99497.53
2019-04-10T01:37:48.588Z,99502.48
2019-04-10T01:38:13.481Z,99491.86
2019-04-10T01:38:49.516Z,99497.93
2019-04-10T01:39:28.580Z,99499.34
2019-04-10T01:40:04.547Z,99495.98
2019-04-10T01:40:39.972Z,99500.63
2019-04-10T01:41:15.507Z,99496.75
2019-04-10T01:41:52.268Z,99495.08
2019-04-10T01:42:28.402Z,99494.11
2019-04-10T01:43:09.876Z,99499.73
2019-04-10T01:43:41.381Z,99497.77
2019-04-10T01:44:16.817Z,99494.23
2019-04-10T01:44:53.137Z,99492.22
2019-04-10T01:45:29.312Z,99493.52
2019-04-10T01:46:04.716Z,99494.45
2019-04-10T01:46:40.515Z,99485.92
2019-04-10T01:47:17.176Z,99488.74
2019-04-10T01:47:53.294Z,99488.74
2019-04-10T01:48:29.868Z,99490.48
2019-04-10T01:49:05.552Z,99495.46
2019-04-10T01:49:41.879Z,99492.43
2019-04-10T01:50:17.999Z,99491.08
2019-04-10T01:50:53.492Z,99492.04
2019-04-10T01:51:28.906Z,99490.98
2019-04-10T01:52:05.243Z,99489.13
2019-04-10T01:52:41.445Z,99489.19
2019-04-10T01:53:17.595Z,99494.11
2019-04-10T01:53:52.998Z,99490.63
2019-04-10T01:54:28.413Z,99488.17
2019-04-10T01:55:18.176Z,99485.53
2019-04-10T01:55:40.984Z,99490.75
2019-04-10T01:56:27.034Z,99494.74
2019-04-10T01:56:53.737Z,99485.77
2019-04-10T01:57:29.167Z,99487.99
2019-04-10T01:58:07.197Z,99489.64
2019-04-10T01:58:44.077Z,99490.30
2019-04-10T01:59:21.537Z,99489.13
2019-04-10T01:59:56.958Z,99487.27
2019-04-10T02:00:33.030Z,99487.27
2019-04-10T02:01:15.021Z,99487.33
2019-04-10T02:01:53.923Z,99488.50
2019-04-10T02:02:49.643Z,99490.42
2019-04-10T02:03:25.709Z,99492.05
2019-04-10T02:04:01.228Z,99486.70
2019-04-10T02:04:36.631Z,99487.09
2019-04-10T02:05:14.479Z,99482.77
2019-04-10T02:05:49.991Z,99484.58
2019-04-10T02:06:25.398Z,99484.13
2019-04-10T02:07:02.154Z,99485.48
2019-04-10T02:07:38.239Z,99489.13
2019-04-10T02:08:16.064Z,99481.66
2019-04-10T02:08:50.987Z,99485.98
2019-04-10T02:09:27.618Z,99487.22
2019-04-10T02:10:03.660Z,99476.27
2019-04-10T02:10:40.470Z,99483.55
2019-04-10T02:11:16.061Z,99477.95
2019-04-10T02:11:52.348Z,99487.73
2019-04-10T02:12:28.421Z,99486.59
2019-04-10T02:13:05.305Z,99489.41
2019-04-10T02:13:41.333Z,99487.88
2019-04-10T02:14:16.805Z,99487.88
2019-04-10T02:14:52.364Z,99487.94
2019-04-10T02:15:28.092Z,99491.75
2019-04-10T02:16:03.908Z,99492.65
2019-04-10T02:16:41.042Z,99488.84
2019-04-10T02:17:17.003Z,99490.91
2019-04-10T02:17:52.955Z,99492.59
2019-04-10T02:18:28.450Z,99494.39
2019-04-10T02:19:03.888Z,99487.55
2019-04-10T02:19:40.589Z,99495.11
2019-04-10T02:20:16.387Z,99492.89
2019-04-10T02:20:51.820Z,99482.27
2019-04-10T02:21:27.570Z,99488.72
2019-04-10T02:22:03.138Z,99488.56
2019-04-10T02:22:38.564Z,99484.25
2019-04-10T02:23:14.185Z,99490.45
2019-04-10T02:23:50.301Z,99491.53
2019-04-10T02:24:25.805Z,99495.68
2019-04-10T02:25:01.241Z,99492.70
2019-04-10T02:25:36.985Z,99487.61
2019-04-10T02:26:13.591Z,99490.64
2019-04-10T02:26:49.829Z,99496.64
2019-04-10T02:27:25.274Z,99491.53
2019-04-10T02:28:00.686Z,99483.16
2019-04-10T02:28:37.437Z,99488.95
2019-04-10T02:29:12.916Z,99492.77
2019-04-10T02:29:48.677Z,99487.84
2019-04-10T02:30:25.972Z,99490.81
2019-04-10T02:31:02.847Z,99484.52
2019-04-10T02:31:39.167Z,99486.38
2019-04-10T02:32:16.604Z,99485.80
2019-04-10T02:32:52.874Z,99483.80
2019-04-10T02:33:29.463Z,99487.33
2019-04-10T02:34:07.007Z,99487.33
2019-04-10T02:34:43.847Z,99484.63
2019-04-10T02:35:23.720Z,99485.92
2019-04-10T02:35:58.972Z,99483.97
2019-04-10T02:36:36.196Z,99481.39
2019-04-10T02:37:15.289Z,99485.36
2019-04-10T02:37:55.438Z,99487.84
2019-04-10T02:38:43.351Z,99482.63
2019-04-10T02:39:17.826Z,99485.20
2019-04-10T02:39:47.920Z,99480.94
2019-04-10T02:40:21.342Z,99481.39
2019-04-10T02:40:57.490Z,99485.98
2019-04-10T02:41:34.612Z,99484.64
2019-04-10T02:42:10.857Z,99478.78
2019-04-10T02:42:47.374Z,99486.20
2019-04-10T02:43:23.391Z,99487.61
2019-04-10T02:43:59.964Z,99483.11
2019-04-10T02:44:35.668Z,99486.14
2019-04-10T02:45:12.661Z,99477.61
2019-04-10T02:45:49.418Z,99486.14
2019-04-10T02:46:25.104Z,99485.87
2019-04-10T02:47:01.991Z,99487.94
2019-04-10T02:47:38.920Z,99486.20
2019-04-10T02:48:15.028Z,99487.16
2019-04-10T02:48:51.965Z,99485.36
2019-04-10T02:49:28.074Z,99477.95
2019-04-10T02:50:06.101Z,99477.95
2019-04-10T02:50:40.891Z,99485.17
2019-04-10T02:51:17.602Z,99480.13
2019-04-10T02:51:54.837Z,99478.52
2019-04-10T02:52:30.795Z,99480.13
2019-04-10T02:53:07.795Z,99475.70
2019-04-10T02:53:43.916Z,99474.70
2019-04-10T02:54:21.205Z,99480.25
2019-04-10T02:54:57.827Z,99481.09
2019-04-10T02:55:33.460Z,99478.19
2019-04-10T02:56:09.110Z,99479.56
2019-04-10T02:56:45.795Z,99478.73
2019-04-10T02:57:22.052Z,99477.67
2019-04-10T02:57:58.735Z,99474.20
2019-04-10T02:58:34.737Z,99482.27
2019-04-10T02:59:11.240Z,99478.34
2019-04-10T02:59:47.111Z,99483.16
2019-04-10T03:00:24.342Z,99480.79
2019-04-10T03:01:01.310Z,99490.06
2019-04-10T03:01:37.938Z,99485.63
2019-04-10T03:02:14.106Z,99483.05
2019-04-10T03:02:51.638Z,99486.41
2019-04-10T03:03:27.641Z,99486.02
2019-04-10T03:04:03.463Z,99491.81
2019-04-10T03:04:40.520Z,99491.81
2019-04-10T03:05:17.620Z,99488.59
2019-04-10T03:05:54.249Z,99490.78
2019-04-10T03:06:30.992Z,99485.63
2019-04-10T03:07:07.625Z,99492.77
2019-04-10T03:07:44.329Z,99488.98
2019-04-10T03:08:37.103Z,99491.87
2019-04-10T03:09:11.933Z,99487.16
2019-04-10T03:09:49.410Z,99481.27
2019-04-10T03:10:24.551Z,99490.58
2019-04-10T03:10:56.045Z,99489.28
2019-04-10T03:11:28.037Z,99489.08
2019-04-10T03:12:03.849Z,99485.53
2019-04-10T03:12:40.983Z,99485.69
2019-04-10T03:13:17.890Z,99484.58
2019-04-10T03:13:53.749Z,99484.19
2019-04-10T03:14:32.526Z,99485.48
2019-04-10T03:15:10.536Z,99488.05
2019-04-10T03:15:47.496Z,99489.80
2019-04-10T03:16:23.655Z,99481.36
2019-04-10T03:16:59.800Z,99484.34
2019-04-10T03:17:36.632Z,99483.83
2019-04-10T03:18:12.732Z,99481.03
2019-04-10T03:18:49.286Z,99490.45
2019-04-10T03:19:25.529Z,99487.42
2019-04-10T03:20:02.231Z,99487.42
2019-04-10T03:20:38.470Z,99489.55
2019-04-10T03:21:15.249Z,99482.53
2019-04-10T03:21:51.391Z,99490.00
2019-04-10T03:22:27.590Z,99494.98
2019-04-10T03:23:03.211Z,99492.02
2019-04-10T03:23:38.633Z,99488.53
2019-04-10T03:24:15.037Z,99486.25
2019-04-10T03:24:50.827Z,99491.63
2019-04-10T03:25:26.736Z,99493.63
2019-04-10T03:26:02.267Z,99485.80
2019-04-10T03:26:39.492Z,99488.77
2019-04-10T03:27:15.076Z,99486.70
2019-04-10T03:27:50.858Z,99482.20
2019-04-10T03:28:27.084Z,99484.92
2019-04-10T03:29:03.221Z,99494.20
2019-04-10T03:29:38.782Z,99486.47
2019-04-10T03:30:15.305Z,99492.02
2019-04-10T03:30:51.065Z,99487.30
2019-04-10T03:31:27.748Z,99492.38
2019-04-10T03:32:23.741Z,99483.34
2019-04-10T03:33:31.162Z,99480.25
2019-04-10T03:34:28.473Z,99492.80
2019-04-10T03:35:08.489Z,99492.80
2019-04-10T03:35:49.570Z,99501.67
2019-04-10T03:36:27.387Z,99501.67
2019-04-10T03:37:02.982Z,99498.01
2019-04-10T03:37:40.334Z,99502.72
2019-04-10T03:38:16.196Z,99504.85
2019-04-10T03:38:58.573Z,99505.36
2019-04-10T03:39:31.710Z,99500.59
2019-04-10T03:40:07.023Z,99500.89
2019-04-10T03:40:42.526Z,99504.91
2019-04-10T03:41:17.954Z,99507.94
2019-04-10T03:41:53.395Z,99504.02
2019-04-10T03:42:28.819Z,99507.43
2019-04-10T03:43:04.213Z,99506.31
2019-04-10T03:43:39.617Z,99505.68
2019-04-10T03:44:15.155Z,99510.12
2019-04-10T03:44:51.398Z,99511.30
2019-04-10T03:45:27.203Z,99507.22
2019-04-10T03:46:03.314Z,99509.28
2019-04-10T03:46:40.162Z,99507.66
2019-04-10T03:47:15.741Z,99509.73
2019-04-10T03:47:51.511Z,99509.80
2019-04-10T03:48:27.951Z,99505.56
2019-04-10T03:49:03.372Z,99507.61
2019-04-10T03:49:40.085Z,99504.33
2019-04-10T03:50:16.327Z,99511.68
2019-04-10T03:50:52.159Z,99510.00
2019-04-10T03:51:28.303Z,99508.14
2019-04-10T03:52:03.771Z,99509.05
2019-04-10T03:52:39.216Z,99501.30
2019-04-10T03:53:14.718Z,99503.73
2019-04-10T03:53:50.858Z,99505.41
2019-04-10T03:54:26.287Z,99505.30
2019-04-10T03:55:02.798Z,99504.91
2019-04-10T03:55:38.328Z,99510.12
2019-04-10T03:56:13.883Z,99504.13
2019-04-10T03:56:50.022Z,99503.28
2019-04-10T03:57:26.604Z,99504.13
2019-04-10T03:58:02.854Z,99502.59
2019-04-10T03:58:38.461Z,99501.22
2019-04-10T03:59:14.004Z,99505.87
2019-04-10T03:59:49.718Z,99505.02
2019-04-10T04:00:25.879Z,99500.77
2019-04-10T04:01:01.437Z,99504.27
2019-04-10T04:01:36.842Z,99500.13
2019-04-10T04:02:12.302Z,99507.03
2019-04-10T04:02:48.318Z,99500.13
2019-04-10T04:03:24.691Z,99499.44
2019-04-10T04:04:00.159Z,99509.27
2019-04-10T04:04:35.892Z,99492.15
2019-04-10T04:05:11.434Z,99499.73
2019-04-10T04:05:47.337Z,99500.45
2019-04-10T04:06:23.728Z,99495.04
2019-04-10T04:06:59.893Z,99508.59
2019-04-10T04:07:36.732Z,99500.65
2019-04-10T04:08:13.108Z,99501.94
2019-04-10T04:09:00.914Z,99503.80
2019-04-10T04:09:25.933Z,99500.77
2019-04-10T04:10:02.569Z,99497.34
2019-04-10T04:10:38.096Z,99499.80
2019-04-10T04:11:13.545Z,99504.78
2019-04-10T04:11:50.290Z,99500.58
2019-04-10T04:12:26.638Z,99503.16
2019-04-10T04:13:04.882Z,99499.34
2019-04-10T04:13:39.703Z,99504.39
2019-04-10T04:14:16.463Z,99497.03
2019-04-10T04:14:52.725Z,99503.55
2019-04-10T04:15:28.274Z,99497.10
2019-04-10T04:16:03.666Z,99501.42
2019-04-10T04:16:39.439Z,99498.39
2019-04-10T04:17:15.766Z,99500.64
2019-04-10T04:17:51.362Z,99502.83
2019-04-10T04:18:26.964Z,99498.59
2019-04-10T04:19:03.825Z,99497.92
2019-04-10T04:19:39.979Z,99495.34
2019-04-10T04:20:15.648Z,99498.44
2019-04-10T04:20:52.952Z,99499.87
2019-04-10T04:21:28.389Z,99498.97
2019-04-10T04:22:04.043Z,99501.66
2019-04-10T04:22:41.118Z,99502.17
2019-04-10T04:23:17.192Z,99498.63
2019-04-10T04:23:53.284Z,99505.72
2019-04-10T04:24:28.703Z,99505.42
2019-04-10T04:25:04.589Z,99506.48
2019-04-10T04:25:40.733Z,99505.53
2019-04-10T04:26:16.974Z,99505.98
2019-04-10T04:26:53.034Z,99507.22
2019-04-10T04:27:29.263Z,99511.14
2019-04-10T04:28:04.698Z,99503.55
2019-04-10T04:28:40.203Z,99507.08
2019-04-10T04:29:16.408Z,99503.77
2019-04-10T04:29:52.305Z,99510.44
2019-04-10T04:30:28.011Z,99501.92
2019-04-10T04:31:03.441Z,99507.77
2019-04-10T04:31:39.899Z,99509.20
2019-04-10T04:32:15.623Z,99510.44
2019-04-10T04:32:51.411Z,99504.95
2019-04-10T04:33:27.654Z,99509.06
2019-04-10T04:34:04.037Z,99509.40
2019-04-10T04:34:39.460Z,99510.24
2019-04-10T04:35:15.387Z,99509.27
2019-04-10T04:35:51.162Z,99506.89
2019-04-10T04:36:26.764Z,99508.37
2019-04-10T04:37:02.902Z,99503.55
2019-04-10T04:37:38.403Z,99506.23
2019-04-10T04:38:13.930Z,99508.48
2019-04-10T04:38:49.379Z,99497.13
2019-04-10T04:39:28.112Z,99507.50
2019-04-10T04:40:03.052Z,99508.98
2019-04-10T04:40:38.788Z,99507.41
2019-04-10T04:41:15.409Z,99516.22
2019-04-10T04:41:50.881Z,99509.18
2019-04-10T04:42:26.517Z,99501.89
2019-04-10T04:43:02.159Z,99503.97
2019-04-10T04:43:37.598Z,99515.70
2019-04-10T04:44:14.494Z,99507.89
2019-04-10T04:44:50.130Z,99509.23
2019-04-10T04:45:25.732Z,99508.17
2019-04-10T04:46:01.278Z,99507.28
2019-04-10T04:46:37.078Z,99512.73
2019-04-10T04:47:13.382Z,99504.87
2019-04-10T04:47:48.894Z,99512.80
2019-04-10T04:48:24.387Z,99519.78
2019-04-10T04:49:00.037Z,99509.52
2019-04-10T04:49:35.815Z,99509.77
2019-04-10T04:50:11.928Z,99513.97
2019-04-10T04:50:47.406Z,99522.02
2019-04-10T04:51:23.171Z,99508.73
2019-04-10T04:51:58.593Z,99513.50
2019-04-10T04:52:34.988Z,99518.66
2019-04-10T04:53:10.738Z,99519.02
2019-04-10T04:53:46.737Z,99521.14
2019-04-10T04:54:23.099Z,99520.84
2019-04-10T04:54:58.764Z,99520.84
2019-04-10T04:55:35.192Z,99514.50
2019-04-10T04:56:11.483Z,99524.02
2019-04-10T04:56:47.075Z,99524.56
2019-04-10T04:57:22.704Z,99518.78
2019-04-10T04:57:58.174Z,99518.78
2019-04-10T04:58:34.003Z,99522.94
2019-04-10T04:59:10.182Z,99522.94
2019-04-10T04:59:46.086Z,99525.70
2019-04-10T05:00:21.596Z,99519.77
2019-04-10T05:00:56.978Z,99531.31
2019-04-10T05:01:32.392Z,99520.95
2019-04-10T05:02:07.970Z,99518.62
2019-04-10T05:02:43.445Z,99522.19
2019-04-10T05:03:18.930Z,99523.13
2019-04-10T05:03:55.090Z,99523.44
2019-04-10T05:04:32.323Z,99526.74
2019-04-10T05:05:08.667Z,99524.22
2019-04-10T05:05:44.234Z,99520.06
2019-04-10T05:06:20.111Z,99522.05
2019-04-10T05:06:55.716Z,99518.28
2019-04-10T05:07:31.314Z,99524.08
2019-04-10T05:08:07.404Z,99527.09
2019-04-10T05:08:43.897Z,99527.09
2019-04-10T05:09:29.854Z,99528.09
2019-04-10T05:09:59.048Z,99519.08
2019-04-10T05:10:33.811Z,99527.34
2019-04-10T05:11:09.847Z,99520.66
2019-04-10T05:11:45.433Z,99531.70
2019-04-10T05:12:21.395Z,99519.22
2019-04-10T05:12:57.840Z,99531.06
2019-04-10T05:13:33.323Z,99524.92
2019-04-10T05:14:08.738Z,99524.42
2019-04-10T05:14:44.173Z,99531.95
2019-04-10T05:15:20.598Z,99531.81
2019-04-10T05:15:57.557Z,99531.11
2019-04-10T05:16:33.054Z,99532.66
2019-04-10T05:17:08.506Z,99535.47
2019-04-10T05:17:44.984Z,99535.47
2019-04-10T05:18:21.228Z,99537.86
2019-04-10T05:18:56.714Z,99528.45
2019-04-10T05:19:32.226Z,99525.27
2019-04-10T05:20:07.857Z,99535.38
2019-04-10T05:20:47.199Z,99532.81
2019-04-10T05:21:21.343Z,99537.75
2019-04-10T05:21:57.471Z,99538.30
2019-04-10T05:22:34.024Z,99538.30
2019-04-10T05:23:10.282Z,99545.14
2019-04-10T05:23:45.793Z,99545.14
2019-04-10T05:24:22.002Z,99535.67
2019-04-10T05:24:57.865Z,99535.67
2019-04-10T05:25:34.405Z,99541.91
2019-04-10T05:26:10.191Z,99545.40
2019-04-10T05:26:46.759Z,99538.80
2019-04-10T05:27:22.643Z,99538.80
2019-04-10T05:27:58.026Z,99550.97
2019-04-10T05:28:33.444Z,99550.97
2019-04-10T05:29:09.025Z,99551.68
2019-04-10T05:29:45.050Z,99547.51
2019-04-10T05:30:20.728Z,99552.37
2019-04-10T05:30:56.853Z,99550.55
2019-04-10T05:31:32.375Z,99550.55
2019-04-10T05:32:07.790Z,99552.77
2019-04-10T05:32:43.803Z,99552.92
2019-04-10T05:33:20.413Z,99552.92
2019-04-10T05:33:56.122Z,99523.03
2019-04-10T05:34:31.797Z,99546.66
2019-04-10T05:35:09.042Z,99546.66
2019-04-10T05:35:44.605Z,99563.06
2019-04-10T05:36:20.201Z,99552.08
2019-04-10T05:36:56.758Z,99562.81
2019-04-10T05:37:32.373Z,99557.77
2019-04-10T05:38:08.022Z,99557.77
2019-04-10T05:38:43.990Z,99559.50
2019-04-10T05:39:19.589Z,99562.95
2019-04-10T05:39:55.360Z,99562.95
2019-04-10T05:40:33.117Z,99551.52
2019-04-10T05:41:09.128Z,99564.56
2019-04-10T05:41:44.644Z,99561.67
2019-04-10T05:42:20.606Z,99560.59
2019-04-10T05:42:57.264Z,99564.11
2019-04-10T05:43:32.875Z,99568.12
2019-04-10T05:44:08.300Z,99568.12
2019-04-10T05:44:44.401Z,99566.28
2019-04-10T05:45:21.149Z,99569.96
2019-04-10T05:45:57.182Z,99569.96
2019-04-10T05:46:32.701Z,99560.59
2019-04-10T05:47:08.105Z,99563.62
2019-04-10T05:47:44.431Z,99569.52
2019-04-10T05:48:22.460Z,99567.57
2019-04-10T05:48:57.957Z,99576.64
2019-04-10T05:49:33.345Z,99561.59
2019-04-10T05:50:09.090Z,99561.59
2019-04-10T05:50:53.847Z,99570.50
2019-04-10T05:51:23.248Z,99573.82
2019-04-10T05:51:59.027Z,99573.92
2019-04-10T05:52:35.343Z,99572.47
2019-04-10T05:53:11.897Z,99572.47
2019-04-10T05:53:49.898Z,99573.55
2019-04-10T05:54:24.723Z,99576.13
2019-04-10T05:55:00.372Z,99579.06
2019-04-10T05:55:36.489Z,99579.06
2019-04-10T05:56:12.088Z,99580.42
2019-04-10T05:56:47.590Z,99575.95
2019-04-10T05:57:23.042Z,99578.80
2019-04-10T05:57:59.448Z,99578.80
2019-04-10T05:58:35.568Z,99579.30
2019-04-10T05:59:12.287Z,99576.44
2019-04-10T05:59:49.089Z,99576.44
2019-04-10T06:00:24.975Z,99585.50
2019-04-10T06:01:02.382Z,99577.61
2019-04-10T06:01:40.896Z,99580.08
2019-04-10T06:02:15.824Z,99574.77
2019-04-10T06:02:52.179Z,99574.77
2019-04-10T06:03:28.229Z,99585.58
2019-04-10T06:04:05.061Z,99579.56
2019-04-10T06:04:41.199Z,99579.56
2019-04-10T06:05:18.146Z,99581.03
2019-04-10T06:05:54.287Z,99574.41
2019-04-10T06:06:30.653Z,99574.41
2019-04-10T06:07:06.077Z,99583.95
2019-04-10T06:07:41.539Z,99585.78
2019-04-10T06:08:17.932Z,99586.57
2019-04-10T06:08:53.570Z,99586.57
2019-04-10T06:09:29.016Z,99586.30
2019-04-10T06:10:08.486Z,99587.20
2019-04-10T06:10:42.292Z,99587.20
2019-04-10T06:11:17.749Z,99586.89
2019-04-10T06:11:53.265Z,99586.89
2019-04-10T06:12:28.697Z,99585.16
2019-04-10T06:13:04.149Z,99579.58
2019-04-10T06:13:40.912Z,99592.84
2019-04-10T06:14:16.374Z,99578.58
2019-04-10T06:14:52.793Z,99588.92
2019-04-10T06:15:28.799Z,99585.25
2019-04-10T06:16:04.190Z,99585.25
2019-04-10T06:16:40.568Z,99586.05
2019-04-10T06:17:16.454Z,99584.45
2019-04-10T06:17:51.956Z,99584.89
2019-04-10T06:18:27.721Z,99586.14
2019-04-10T06:19:03.949Z,99585.44
2019-04-10T06:19:40.491Z,99585.44
2019-04-10T06:20:17.457Z,99587.91
2019-04-10T06:20:54.598Z,99587.91
2019-04-10T06:21:31.424Z,99586.28
2019-04-10T06:22:09.496Z,99590.54
2019-04-10T06:22:45.501Z,99583.16
2019-04-10T06:23:21.284Z,99583.16
2019-04-10T06:23:58.240Z,99583.09
2019-04-10T06:24:33.923Z,99592.62
2019-04-10T06:25:12.889Z,99590.59
2019-04-10T06:25:47.743Z,99590.59
2019-04-10T06:26:23.726Z,99592.22
2019-04-10T06:27:00.027Z,99594.30
2019-04-10T06:27:36.646Z,99586.72
2019-04-10T06:28:12.975Z,99585.39
2019-04-10T06:28:48.579Z,99595.59
2019-04-10T06:29:24.347Z,99595.59
2019-04-10T06:30:00.205Z,99590.48
2019-04-10T06:30:36.303Z,99594.80
2019-04-10T06:31:12.528Z,99594.80
2019-04-10T06:31:49.219Z,99593.69
2019-04-10T06:32:25.483Z,99593.73
2019-04-10T06:33:02.162Z,99593.73
2019-04-10T06:33:38.175Z,99594.12
2019-04-10T06:34:15.992Z,99588.41
2019-04-10T06:34:51.250Z,99592.05
2019-04-10T06:35:28.086Z,99592.05
2019-04-10T06:36:04.893Z,99597.07
2019-04-10T06:36:41.622Z,99588.86
2019-04-10T06:37:17.761Z,99588.86
2019-04-10T06:37:53.306Z,99596.23
2019-04-10T06:38:28.805Z,99590.02
2019-04-10T06:39:06.719Z,99591.75
2019-04-10T06:39:44.499Z,99597.33
2019-04-10T06:40:22.577Z,99597.33
2019-04-10T06:40:57.851Z,99589.92
2019-04-10T06:41:33.380Z,99589.92
2019-04-10T06:42:08.800Z,99593.56
2019-04-10T06:42:49.754Z,99594.40
2019-04-10T06:43:22.564Z,99599.47
2019-04-10T06:43:59.159Z,99599.47
2019-04-10T06:44:34.606Z,99593.38
2019-04-10T06:45:11.458Z,99597.86
2019-04-10T06:45:46.950Z,99597.86
2019-04-10T06:46:24.236Z,99599.47
2019-04-10T06:47:00.037Z,99602.48
2019-04-10T06:47:36.188Z,99597.02
2019-04-10T06:48:13.060Z,99597.02
2019-04-10T06:48:48.597Z,99596.72
2019-04-10T06:49:24.878Z,99596.72
2019-04-10T06:50:00.939Z,99595.95
2019-04-10T06:50:37.104Z,99596.23
2019-04-10T06:51:12.696Z,99596.23
2019-04-10T06:51:49.411Z,99602.92
2019-04-10T06:52:25.091Z,99602.92
2019-04-10T06:53:00.549Z,99601.05
2019-04-10T06:53:35.979Z,99588.91
2019-04-10T06:54:12.951Z,99599.90
2019-04-10T06:54:49.084Z,99606.66
2019-04-10T06:55:24.569Z,99608.03
2019-04-10T06:56:00.706Z,99601.95
2019-04-10T06:56:37.435Z,99604.34
2019-04-10T06:57:13.015Z,99603.67
2019-04-10T06:57:54.428Z,99603.67
2019-04-10T06:58:25.622Z,99599.38
2019-04-10T06:59:01.106Z,99599.38
2019-04-10T06:59:37.694Z,99612.16
2019-04-10T07:00:16.714Z,99612.16
2019-04-10T07:00:53.839Z,99603.91
2019-04-10T07:01:39.460Z,99603.91
2019-04-10T07:02:16.669Z,99603.45
2019-04-10T07:02:44.373Z,99606.62
2019-04-10T07:03:21.093Z,99603.42
2019-04-10T07:04:03.633Z,99604.66
2019-04-10T07:04:44.174Z,99610.11
2019-04-10T07:05:12.377Z,99607.98
2019-04-10T07:06:03.281Z,99607.98
2019-04-10T07:06:39.607Z,99613.27
2019-04-10T07:07:07.777Z,99615.36